sensor_id;sensor_type;location;lat;lon;timestamp;P1;durP1;ratioP1;P2;durP2;ratioP2
3991;SDS011;2010;48.194;16.394;2022-12-08T00:01:39;6.73;;;4.90;;
3991;SDS011;2010;48.194;16.394;2022-12-08T00:04:13;6.93;;;5.27;;
3991;SDS011;2010;48.194;16.394;2022-12-08T00:06:53;5.70;;;5.13;;
3991;SDS011;2010;48.194;16.394;2022-12-08T00:09:42;5.13;;;4.53;;
3991;SDS011;2010;48.194;16.394;2022-12-08T00:12:33;5.10;;;4.57;;
3991;SDS011;2010;48.194;16.394;2022-12-08T00:15:06;4.77;;;4.20;;
3991;SDS011;2010;48.194;16.394;2022-12-08T00:17:35;8.73;;;4.60;;
3991;SDS011;2010;48.194;16.394;2022-12-08T00:20:07;5.73;;;5.17;;
3991;SDS011;2010;48.194;16.394;2022-12-08T00:22:39;4.87;;;4.47;;
3991;SDS011;2010;48.194;16.394;2022-12-08T00:25:15;10.23;;;4.50;;
3991;SDS011;2010;48.194;16.394;2022-12-08T00:27:48;4.70;;;4.13;;
3991;SDS011;2010;48.194;16.394;2022-12-08T00:30:17;5.20;;;4.30;;
3991;SDS011;2010;48.194;16.394;2022-12-08T00:32:48;5.20;;;4.60;;
3991;SDS011;2010;48.194;16.394;2022-12-08T00:35:31;3.93;;;3.10;;
3991;SDS011;2010;48.194;16.394;2022-12-08T00:38:04;6.27;;;4.43;;
3991;SDS011;2010;48.194;16.394;2022-12-08T00:40:35;4.87;;;4.20;;
3991;SDS011;2010;48.194;16.394;2022-12-08T00:43:05;4.70;;;4.10;;
3991;SDS011;2010;48.194;16.394;2022-12-08T00:45:37;6.60;;;4.60;;
3991;SDS011;2010;48.194;16.394;2022-12-08T00:48:08;6.43;;;4.60;;
3991;SDS011;2010;48.194;16.394;2022-12-08T00:50:37;9.80;;;5.07;;
3991;SDS011;2010;48.194;16.394;2022-12-08T00:53:09;8.30;;;5.60;;
3991;SDS011;2010;48.194;16.394;2022-12-08T00:55:41;9.37;;;5.80;;
3991;SDS011;2010;48.194;16.394;2022-12-08T00:58:13;5.63;;;4.47;;
3991;SDS011;2010;48.194;16.394;2022-12-08T01:00:48;7.33;;;4.90;;
3991;SDS011;2010;48.194;16.394;2022-12-08T01:03:17;7.27;;;5.03;;
3991;SDS011;2010;48.194;16.394;2022-12-08T01:06:01;5.57;;;4.73;;
3991;SDS011;2010;48.194;16.394;2022-12-08T01:08:42;5.77;;;4.70;;
3991;SDS011;2010;48.194;16.394;2022-12-08T01:11:22;6.23;;;4.87;;
3991;SDS011;2010;48.194;16.394;2022-12-08T01:13:55;6.20;;;5.17;;
3991;SDS011;2010;48.194;16.394;2022-12-08T01:16:27;7.93;;;5.17;;
3991;SDS011;2010;48.194;16.394;2022-12-08T01:19:04;10.23;;;5.37;;
3991;SDS011;2010;48.194;16.394;2022-12-08T01:21:33;6.83;;;4.73;;
3991;SDS011;2010;48.194;16.394;2022-12-08T01:24:05;4.83;;;4.13;;
3991;SDS011;2010;48.194;16.394;2022-12-08T01:26:42;7.90;;;4.73;;
3991;SDS011;2010;48.194;16.394;2022-12-08T01:29:27;5.93;;;5.17;;
3991;SDS011;2010;48.194;16.394;2022-12-08T01:31:58;5.50;;;4.63;;
3991;SDS011;2010;48.194;16.394;2022-12-08T01:34:36;9.43;;;4.93;;
3991;SDS011;2010;48.194;16.394;2022-12-08T01:37:07;6.00;;;4.43;;
3991;SDS011;2010;48.194;16.394;2022-12-08T01:39:41;5.00;;;4.40;;
3991;SDS011;2010;48.194;16.394;2022-12-08T01:42:17;7.70;;;4.60;;
3991;SDS011;2010;48.194;16.394;2022-12-08T01:44:56;5.80;;;5.00;;
3991;SDS011;2010;48.194;16.394;2022-12-08T01:47:31;6.17;;;4.07;;
3991;SDS011;2010;48.194;16.394;2022-12-08T01:50:14;6.00;;;4.43;;
3991;SDS011;2010;48.194;16.394;2022-12-08T01:52:54;5.73;;;5.23;;
3991;SDS011;2010;48.194;16.394;2022-12-08T01:55:28;5.67;;;4.70;;
3991;SDS011;2010;48.194;16.394;2022-12-08T01:58:02;5.63;;;4.83;;
3991;SDS011;2010;48.194;16.394;2022-12-08T02:00:46;5.53;;;4.43;;
3991;SDS011;2010;48.194;16.394;2022-12-08T02:03:20;6.70;;;5.07;;
3991;SDS011;2010;48.194;16.394;2022-12-08T02:05:59;5.90;;;4.53;;
3991;SDS011;2010;48.194;16.394;2022-12-08T02:08:39;6.90;;;5.57;;
3991;SDS011;2010;48.194;16.394;2022-12-08T02:11:14;6.20;;;5.10;;
3991;SDS011;2010;48.194;16.394;2022-12-08T02:13:46;5.23;;;4.30;;
3991;SDS011;2010;48.194;16.394;2022-12-08T02:16:30;4.67;;;4.20;;
3991;SDS011;2010;48.194;16.394;2022-12-08T02:19:13;5.40;;;4.90;;
3991;SDS011;2010;48.194;16.394;2022-12-08T02:21:57;6.13;;;4.70;;
3991;SDS011;2010;48.194;16.394;2022-12-08T02:24:29;4.70;;;3.67;;
3991;SDS011;2010;48.194;16.394;2022-12-08T02:27:10;4.60;;;4.20;;
3991;SDS011;2010;48.194;16.394;2022-12-08T02:29:51;6.80;;;5.20;;
3991;SDS011;2010;48.194;16.394;2022-12-08T02:36:01;4.20;;;3.80;;
3991;SDS011;2010;48.194;16.394;2022-12-08T02:38:43;4.53;;;3.70;;
3991;SDS011;2010;48.194;16.394;2022-12-08T02:41:18;5.70;;;4.10;;
3991;SDS011;2010;48.194;16.394;2022-12-08T02:43:59;5.30;;;3.93;;
3991;SDS011;2010;48.194;16.394;2022-12-08T02:46:30;5.93;;;4.43;;
3991;SDS011;2010;48.194;16.394;2022-12-08T02:49:12;5.40;;;4.10;;
3991;SDS011;2010;48.194;16.394;2022-12-08T02:51:47;5.00;;;4.50;;
3991;SDS011;2010;48.194;16.394;2022-12-08T02:54:15;4.87;;;4.03;;
3991;SDS011;2010;48.194;16.394;2022-12-08T02:56:52;4.23;;;3.70;;
3991;SDS011;2010;48.194;16.394;2022-12-08T02:59:42;5.60;;;4.10;;
3991;SDS011;2010;48.194;16.394;2022-12-08T03:02:30;4.60;;;4.10;;
3991;SDS011;2010;48.194;16.394;2022-12-08T03:05:16;8.50;;;4.10;;
3991;SDS011;2010;48.194;16.394;2022-12-08T03:08:01;7.40;;;4.93;;
3991;SDS011;2010;48.194;16.394;2022-12-08T03:10:34;5.33;;;4.30;;
3991;SDS011;2010;48.194;16.394;2022-12-08T03:13:08;4.33;;;3.90;;
3991;SDS011;2010;48.194;16.394;2022-12-08T03:15:45;5.20;;;4.30;;
3991;SDS011;2010;48.194;16.394;2022-12-08T03:18:19;5.97;;;4.13;;
3991;SDS011;2010;48.194;16.394;2022-12-08T03:21:02;6.57;;;4.00;;
3991;SDS011;2010;48.194;16.394;2022-12-08T03:23:33;5.70;;;4.73;;
3991;SDS011;2010;48.194;16.394;2022-12-08T03:26:10;5.33;;;4.43;;
3991;SDS011;2010;48.194;16.394;2022-12-08T03:28:41;5.37;;;4.87;;
3991;SDS011;2010;48.194;16.394;2022-12-08T03:31:21;10.40;;;5.47;;
3991;SDS011;2010;48.194;16.394;2022-12-08T03:33:53;6.07;;;5.00;;
3991;SDS011;2010;48.194;16.394;2022-12-08T03:36:24;5.70;;;5.10;;
3991;SDS011;2010;48.194;16.394;2022-12-08T03:39:06;5.90;;;4.67;;
3991;SDS011;2010;48.194;16.394;2022-12-08T03:41:38;9.17;;;5.70;;
3991;SDS011;2010;48.194;16.394;2022-12-08T03:44:06;9.60;;;5.73;;
3991;SDS011;2010;48.194;16.394;2022-12-08T03:46:34;7.53;;;5.30;;
3991;SDS011;2010;48.194;16.394;2022-12-08T03:49:02;6.20;;;5.60;;
3991;SDS011;2010;48.194;16.394;2022-12-08T03:51:30;10.20;;;5.43;;
3991;SDS011;2010;48.194;16.394;2022-12-08T03:53:58;7.57;;;5.70;;
3991;SDS011;2010;48.194;16.394;2022-12-08T03:56:28;8.33;;;5.73;;
3991;SDS011;2010;48.194;16.394;2022-12-08T03:58:58;7.90;;;5.80;;
3991;SDS011;2010;48.194;16.394;2022-12-08T04:01:26;8.10;;;5.93;;
3991;SDS011;2010;48.194;16.394;2022-12-08T04:03:54;5.83;;;5.20;;
3991;SDS011;2010;48.194;16.394;2022-12-08T04:06:22;8.70;;;6.30;;
3991;SDS011;2010;48.194;16.394;2022-12-08T04:08:51;8.43;;;5.77;;
3991;SDS011;2010;48.194;16.394;2022-12-08T04:11:19;7.80;;;5.77;;
3991;SDS011;2010;48.194;16.394;2022-12-08T04:13:49;7.93;;;6.10;;
3991;SDS011;2010;48.194;16.394;2022-12-08T04:16:18;8.53;;;6.13;;
3991;SDS011;2010;48.194;16.394;2022-12-08T04:18:47;8.00;;;6.33;;
3991;SDS011;2010;48.194;16.394;2022-12-08T04:21:15;7.30;;;5.70;;
3991;SDS011;2010;48.194;16.394;2022-12-08T04:23:43;7.17;;;6.23;;
3991;SDS011;2010;48.194;16.394;2022-12-08T04:26:12;10.67;;;6.60;;
3991;SDS011;2010;48.194;16.394;2022-12-08T04:28:41;5.70;;;4.97;;
3991;SDS011;2010;48.194;16.394;2022-12-08T04:31:10;9.20;;;5.87;;
3991;SDS011;2010;48.194;16.394;2022-12-08T04:33:38;7.40;;;6.10;;
3991;SDS011;2010;48.194;16.394;2022-12-08T04:36:07;8.70;;;5.93;;
3991;SDS011;2010;48.194;16.394;2022-12-08T04:38:35;5.50;;;4.70;;
3991;SDS011;2010;48.194;16.394;2022-12-08T04:41:03;6.13;;;5.53;;
3991;SDS011;2010;48.194;16.394;2022-12-08T04:43:31;8.37;;;6.20;;
3991;SDS011;2010;48.194;16.394;2022-12-08T04:45:59;7.77;;;5.70;;
3991;SDS011;2010;48.194;16.394;2022-12-08T04:48:29;7.53;;;5.87;;
3991;SDS011;2010;48.194;16.394;2022-12-08T04:50:57;7.37;;;5.50;;
3991;SDS011;2010;48.194;16.394;2022-12-08T04:53:25;7.67;;;5.87;;
3991;SDS011;2010;48.194;16.394;2022-12-08T04:55:53;8.20;;;6.10;;
3991;SDS011;2010;48.194;16.394;2022-12-08T04:58:21;7.93;;;5.70;;
3991;SDS011;2010;48.194;16.394;2022-12-08T05:00:49;11.60;;;6.20;;
3991;SDS011;2010;48.194;16.394;2022-12-08T05:03:17;9.20;;;6.20;;
3991;SDS011;2010;48.194;16.394;2022-12-08T05:05:55;6.80;;;6.10;;
3991;SDS011;2010;48.194;16.394;2022-12-08T05:08:24;8.30;;;6.20;;
3991;SDS011;2010;48.194;16.394;2022-12-08T05:10:54;7.73;;;6.20;;
3991;SDS011;2010;48.194;16.394;2022-12-08T05:13:33;7.57;;;6.27;;
3991;SDS011;2010;48.194;16.394;2022-12-08T05:16:04;9.97;;;6.43;;
3991;SDS011;2010;48.194;16.394;2022-12-08T05:18:34;11.00;;;6.73;;
3991;SDS011;2010;48.194;16.394;2022-12-08T05:21:26;8.50;;;6.77;;
3991;SDS011;2010;48.194;16.394;2022-12-08T05:23:55;9.03;;;6.40;;
3991;SDS011;2010;48.194;16.394;2022-12-08T05:26:29;8.33;;;6.13;;
3991;SDS011;2010;48.194;16.394;2022-12-08T05:29:00;8.27;;;6.03;;
3991;SDS011;2010;48.194;16.394;2022-12-08T05:31:33;8.90;;;6.47;;
3991;SDS011;2010;48.194;16.394;2022-12-08T05:34:09;10.80;;;7.00;;
3991;SDS011;2010;48.194;16.394;2022-12-08T05:36:55;10.23;;;6.70;;
3991;SDS011;2010;48.194;16.394;2022-12-08T05:39:24;8.40;;;6.67;;
3991;SDS011;2010;48.194;16.394;2022-12-08T05:41:53;8.90;;;6.10;;
3991;SDS011;2010;48.194;16.394;2022-12-08T05:44:22;6.87;;;6.17;;
3991;SDS011;2010;48.194;16.394;2022-12-08T05:46:54;8.50;;;7.17;;
3991;SDS011;2010;48.194;16.394;2022-12-08T05:49:23;9.23;;;7.23;;
3991;SDS011;2010;48.194;16.394;2022-12-08T05:51:58;6.73;;;5.93;;
3991;SDS011;2010;48.194;16.394;2022-12-08T05:54:29;8.93;;;6.40;;
3991;SDS011;2010;48.194;16.394;2022-12-08T05:57:14;9.57;;;6.90;;
3991;SDS011;2010;48.194;16.394;2022-12-08T05:59:51;8.70;;;6.67;;
3991;SDS011;2010;48.194;16.394;2022-12-08T06:02:38;6.87;;;5.60;;
3991;SDS011;2010;48.194;16.394;2022-12-08T06:05:09;9.63;;;6.80;;
3991;SDS011;2010;48.194;16.394;2022-12-08T06:07:39;7.47;;;6.10;;
3991;SDS011;2010;48.194;16.394;2022-12-08T06:10:09;7.27;;;6.30;;
3991;SDS011;2010;48.194;16.394;2022-12-08T06:12:40;7.53;;;6.50;;
3991;SDS011;2010;48.194;16.394;2022-12-08T06:15:11;9.90;;;7.83;;
3991;SDS011;2010;48.194;16.394;2022-12-08T06:17:47;8.47;;;6.63;;
3991;SDS011;2010;48.194;16.394;2022-12-08T06:20:18;8.60;;;7.30;;
3991;SDS011;2010;48.194;16.394;2022-12-08T06:22:58;8.93;;;7.13;;
3991;SDS011;2010;48.194;16.394;2022-12-08T06:25:32;10.30;;;6.80;;
3991;SDS011;2010;48.194;16.394;2022-12-08T06:28:03;8.37;;;7.47;;
3991;SDS011;2010;48.194;16.394;2022-12-08T06:30:34;9.13;;;6.60;;
3991;SDS011;2010;48.194;16.394;2022-12-08T06:33:04;9.13;;;7.10;;
3991;SDS011;2010;48.194;16.394;2022-12-08T06:35:33;10.23;;;7.33;;
3991;SDS011;2010;48.194;16.394;2022-12-08T06:38:05;9.10;;;7.20;;
3991;SDS011;2010;48.194;16.394;2022-12-08T06:40:51;11.90;;;7.83;;
3991;SDS011;2010;48.194;16.394;2022-12-08T06:43:23;9.90;;;7.60;;
3991;SDS011;2010;48.194;16.394;2022-12-08T06:45:59;8.80;;;7.40;;
3991;SDS011;2010;48.194;16.394;2022-12-08T06:48:38;8.63;;;7.10;;
3991;SDS011;2010;48.194;16.394;2022-12-08T06:51:11;9.90;;;7.93;;
3991;SDS011;2010;48.194;16.394;2022-12-08T06:53:45;8.77;;;7.63;;
3991;SDS011;2010;48.194;16.394;2022-12-08T06:56:14;12.13;;;8.90;;
3991;SDS011;2010;48.194;16.394;2022-12-08T06:58:54;9.30;;;7.60;;
3991;SDS011;2010;48.194;16.394;2022-12-08T07:01:22;11.50;;;7.30;;
3991;SDS011;2010;48.194;16.394;2022-12-08T07:04:06;10.23;;;8.60;;
3991;SDS011;2010;48.194;16.394;2022-12-08T07:06:40;11.43;;;9.20;;
3991;SDS011;2010;48.194;16.394;2022-12-08T07:09:22;10.70;;;8.80;;
3991;SDS011;2010;48.194;16.394;2022-12-08T07:11:51;13.20;;;10.53;;
3991;SDS011;2010;48.194;16.394;2022-12-08T07:14:21;13.10;;;10.20;;
3991;SDS011;2010;48.194;16.394;2022-12-08T07:16:51;20.53;;;13.67;;
3991;SDS011;2010;48.194;16.394;2022-12-08T07:19:22;16.70;;;12.17;;
3991;SDS011;2010;48.194;16.394;2022-12-08T07:21:56;17.70;;;12.40;;
3991;SDS011;2010;48.194;16.394;2022-12-08T07:24:25;20.63;;;11.50;;
3991;SDS011;2010;48.194;16.394;2022-12-08T07:27:03;19.10;;;12.73;;
3991;SDS011;2010;48.194;16.394;2022-12-08T07:29:46;17.03;;;11.37;;
3991;SDS011;2010;48.194;16.394;2022-12-08T07:32:16;21.67;;;12.07;;
3991;SDS011;2010;48.194;16.394;2022-12-08T07:34:53;18.03;;;12.03;;
3991;SDS011;2010;48.194;16.394;2022-12-08T07:37:22;16.73;;;10.40;;
3991;SDS011;2010;48.194;16.394;2022-12-08T07:39:56;15.90;;;11.30;;
3991;SDS011;2010;48.194;16.394;2022-12-08T07:42:30;12.23;;;9.80;;
3991;SDS011;2010;48.194;16.394;2022-12-08T07:45:02;16.53;;;11.17;;
3991;SDS011;2010;48.194;16.394;2022-12-08T07:47:32;13.97;;;10.20;;
3991;SDS011;2010;48.194;16.394;2022-12-08T07:50:08;12.37;;;9.03;;
3991;SDS011;2010;48.194;16.394;2022-12-08T07:52:39;13.17;;;10.20;;
3991;SDS011;2010;48.194;16.394;2022-12-08T07:55:12;11.83;;;9.37;;
3991;SDS011;2010;48.194;16.394;2022-12-08T08:00:39;13.50;;;9.90;;
3991;SDS011;2010;48.194;16.394;2022-12-08T08:03:21;13.50;;;9.80;;
3991;SDS011;2010;48.194;16.394;2022-12-08T08:05:51;12.33;;;9.43;;
3991;SDS011;2010;48.194;16.394;2022-12-08T08:08:28;10.50;;;9.40;;
3991;SDS011;2010;48.194;16.394;2022-12-08T08:11:04;11.00;;;8.13;;
3991;SDS011;2010;48.194;16.394;2022-12-08T08:13:45;13.63;;;10.10;;
3991;SDS011;2010;48.194;16.394;2022-12-08T08:16:18;13.73;;;9.57;;
3991;SDS011;2010;48.194;16.394;2022-12-08T08:18:55;11.30;;;9.27;;
3991;SDS011;2010;48.194;16.394;2022-12-08T08:21:30;14.47;;;10.27;;
3991;SDS011;2010;48.194;16.394;2022-12-08T08:24:12;13.93;;;10.00;;
3991;SDS011;2010;48.194;16.394;2022-12-08T08:26:47;12.57;;;10.63;;
3991;SDS011;2010;48.194;16.394;2022-12-08T08:29:16;15.77;;;10.70;;
3991;SDS011;2010;48.194;16.394;2022-12-08T08:31:45;13.00;;;10.83;;
3991;SDS011;2010;48.194;16.394;2022-12-08T08:34:25;11.77;;;10.47;;
3991;SDS011;2010;48.194;16.394;2022-12-08T08:36:55;14.30;;;10.73;;
3991;SDS011;2010;48.194;16.394;2022-12-08T08:39:27;11.60;;;9.87;;
3991;SDS011;2010;48.194;16.394;2022-12-08T08:42:02;15.90;;;10.60;;
3991;SDS011;2010;48.194;16.394;2022-12-08T08:44:39;17.50;;;10.60;;
3991;SDS011;2010;48.194;16.394;2022-12-08T08:47:11;10.70;;;9.40;;
3991;SDS011;2010;48.194;16.394;2022-12-08T08:49:43;13.63;;;10.30;;
3991;SDS011;2010;48.194;16.394;2022-12-08T08:52:15;15.03;;;10.50;;
3991;SDS011;2010;48.194;16.394;2022-12-08T08:54:46;13.03;;;10.43;;
3991;SDS011;2010;48.194;16.394;2022-12-08T08:57:21;11.73;;;9.53;;
3991;SDS011;2010;48.194;16.394;2022-12-08T08:59:56;15.60;;;9.80;;
3991;SDS011;2010;48.194;16.394;2022-12-08T09:02:31;13.90;;;10.23;;
3991;SDS011;2010;48.194;16.394;2022-12-08T09:05:01;9.53;;;8.53;;
3991;SDS011;2010;48.194;16.394;2022-12-08T09:07:30;13.10;;;9.40;;
3991;SDS011;2010;48.194;16.394;2022-12-08T09:10:00;12.63;;;9.50;;
3991;SDS011;2010;48.194;16.394;2022-12-08T09:12:32;11.27;;;9.50;;
3991;SDS011;2010;48.194;16.394;2022-12-08T09:15:12;10.47;;;8.87;;
3991;SDS011;2010;48.194;16.394;2022-12-08T09:17:44;12.50;;;9.40;;
3991;SDS011;2010;48.194;16.394;2022-12-08T09:20:25;11.30;;;8.50;;
3991;SDS011;2010;48.194;16.394;2022-12-08T09:23:20;11.50;;;8.87;;
3991;SDS011;2010;48.194;16.394;2022-12-08T09:26:02;11.30;;;9.90;;
3991;SDS011;2010;48.194;16.394;2022-12-08T09:28:40;11.80;;;8.67;;
3991;SDS011;2010;48.194;16.394;2022-12-08T09:31:12;13.60;;;10.23;;
3991;SDS011;2010;48.194;16.394;2022-12-08T09:33:53;10.90;;;9.80;;
3991;SDS011;2010;48.194;16.394;2022-12-08T09:36:25;10.83;;;8.60;;
3991;SDS011;2010;48.194;16.394;2022-12-08T09:39:01;11.57;;;8.67;;
3991;SDS011;2010;48.194;16.394;2022-12-08T09:41:41;10.77;;;8.23;;
3991;SDS011;2010;48.194;16.394;2022-12-08T09:44:30;11.00;;;8.47;;
3991;SDS011;2010;48.194;16.394;2022-12-08T09:47:53;12.80;;;8.10;;
3991;SDS011;2010;48.194;16.394;2022-12-08T09:50:38;18.60;;;8.47;;
3991;SDS011;2010;48.194;16.394;2022-12-08T09:53:11;16.60;;;11.40;;
3991;SDS011;2010;48.194;16.394;2022-12-08T09:55:49;10.10;;;9.10;;
3991;SDS011;2010;48.194;16.394;2022-12-08T09:58:24;8.30;;;7.00;;
3991;SDS011;2010;48.194;16.394;2022-12-08T10:01:03;7.43;;;6.70;;
3991;SDS011;2010;48.194;16.394;2022-12-08T10:03:32;9.70;;;8.40;;
3991;SDS011;2010;48.194;16.394;2022-12-08T10:06:12;11.53;;;7.93;;
3991;SDS011;2010;48.194;16.394;2022-12-08T10:08:55;10.13;;;7.70;;
3991;SDS011;2010;48.194;16.394;2022-12-08T10:11:43;10.90;;;8.30;;
3991;SDS011;2010;48.194;16.394;2022-12-08T10:14:19;8.03;;;7.20;;
3991;SDS011;2010;48.194;16.394;2022-12-08T10:16:56;8.87;;;7.97;;
3991;SDS011;2010;48.194;16.394;2022-12-08T10:19:35;9.17;;;8.27;;
3991;SDS011;2010;48.194;16.394;2022-12-08T10:22:08;12.17;;;8.30;;
3991;SDS011;2010;48.194;16.394;2022-12-08T10:24:55;9.37;;;8.37;;
3991;SDS011;2010;48.194;16.394;2022-12-08T10:27:26;10.77;;;8.30;;
3991;SDS011;2010;48.194;16.394;2022-12-08T10:30:08;11.60;;;9.43;;
3991;SDS011;2010;48.194;16.394;2022-12-08T10:32:47;11.17;;;9.20;;
3991;SDS011;2010;48.194;16.394;2022-12-08T10:35:20;14.53;;;10.23;;
3991;SDS011;2010;48.194;16.394;2022-12-08T10:37:54;15.10;;;10.87;;
3991;SDS011;2010;48.194;16.394;2022-12-08T10:40:26;14.20;;;10.53;;
3991;SDS011;2010;48.194;16.394;2022-12-08T10:43:11;14.43;;;10.80;;
3991;SDS011;2010;48.194;16.394;2022-12-08T10:45:48;12.33;;;10.60;;
3991;SDS011;2010;48.194;16.394;2022-12-08T10:48:23;19.10;;;10.90;;
3991;SDS011;2010;48.194;16.394;2022-12-08T10:50:54;13.80;;;10.43;;
3991;SDS011;2010;48.194;16.394;2022-12-08T10:53:23;13.07;;;10.20;;
3991;SDS011;2010;48.194;16.394;2022-12-08T10:56:04;12.87;;;10.23;;
3991;SDS011;2010;48.194;16.394;2022-12-08T10:58:34;13.23;;;10.63;;
3991;SDS011;2010;48.194;16.394;2022-12-08T11:01:08;13.37;;;10.10;;
3991;SDS011;2010;48.194;16.394;2022-12-08T11:03:42;13.00;;;10.47;;
3991;SDS011;2010;48.194;16.394;2022-12-08T11:06:14;13.83;;;10.60;;
3991;SDS011;2010;48.194;16.394;2022-12-08T11:08:45;12.87;;;10.47;;
3991;SDS011;2010;48.194;16.394;2022-12-08T11:11:15;12.27;;;10.87;;
3991;SDS011;2010;48.194;16.394;2022-12-08T11:13:43;13.00;;;10.90;;
3991;SDS011;2010;48.194;16.394;2022-12-08T11:16:15;13.40;;;10.93;;
3991;SDS011;2010;48.194;16.394;2022-12-08T11:18:45;18.47;;;11.33;;
3991;SDS011;2010;48.194;16.394;2022-12-08T11:21:16;17.97;;;10.90;;
3991;SDS011;2010;48.194;16.394;2022-12-08T11:23:46;15.03;;;11.23;;
3991;SDS011;2010;48.194;16.394;2022-12-08T11:26:17;15.10;;;11.00;;
3991;SDS011;2010;48.194;16.394;2022-12-08T11:28:47;15.63;;;12.13;;
3991;SDS011;2010;48.194;16.394;2022-12-08T11:31:21;15.50;;;12.10;;
3991;SDS011;2010;48.194;16.394;2022-12-08T11:33:55;15.33;;;12.03;;
3991;SDS011;2010;48.194;16.394;2022-12-08T11:36:24;14.17;;;12.13;;
3991;SDS011;2010;48.194;16.394;2022-12-08T11:38:55;16.13;;;12.07;;
3991;SDS011;2010;48.194;16.394;2022-12-08T11:41:25;17.13;;;12.37;;
3991;SDS011;2010;48.194;16.394;2022-12-08T11:43:54;18.70;;;12.70;;
3991;SDS011;2010;48.194;16.394;2022-12-08T11:46:30;16.43;;;13.07;;
3991;SDS011;2010;48.194;16.394;2022-12-08T11:49:01;17.90;;;12.70;;
3991;SDS011;2010;48.194;16.394;2022-12-08T11:51:33;15.03;;;11.80;;
3991;SDS011;2010;48.194;16.394;2022-12-08T11:54:11;16.80;;;12.00;;
3991;SDS011;2010;48.194;16.394;2022-12-08T11:56:43;19.87;;;13.90;;
3991;SDS011;2010;48.194;16.394;2022-12-08T11:59:18;16.10;;;11.97;;
3991;SDS011;2010;48.194;16.394;2022-12-08T12:01:50;16.23;;;12.30;;
3991;SDS011;2010;48.194;16.394;2022-12-08T12:04:22;19.13;;;12.77;;
3991;SDS011;2010;48.194;16.394;2022-12-08T12:06:58;16.00;;;11.83;;
3991;SDS011;2010;48.194;16.394;2022-12-08T12:09:43;19.20;;;12.97;;
3991;SDS011;2010;48.194;16.394;2022-12-08T12:12:21;22.80;;;12.70;;
3991;SDS011;2010;48.194;16.394;2022-12-08T12:15:21;16.87;;;12.80;;
3991;SDS011;2010;48.194;16.394;2022-12-08T12:17:58;16.60;;;12.40;;
3991;SDS011;2010;48.194;16.394;2022-12-08T12:20:30;16.90;;;12.03;;
3991;SDS011;2010;48.194;16.394;2022-12-08T12:23:01;16.07;;;11.50;;
3991;SDS011;2010;48.194;16.394;2022-12-08T12:25:32;16.83;;;13.17;;
3991;SDS011;2010;48.194;16.394;2022-12-08T12:28:02;19.40;;;13.30;;
3991;SDS011;2010;48.194;16.394;2022-12-08T12:30:49;20.20;;;13.63;;
3991;SDS011;2010;48.194;16.394;2022-12-08T12:33:31;19.47;;;13.43;;
3991;SDS011;2010;48.194;16.394;2022-12-08T12:36:06;17.23;;;12.57;;
3991;SDS011;2010;48.194;16.394;2022-12-08T12:38:46;18.13;;;13.87;;
3991;SDS011;2010;48.194;16.394;2022-12-08T12:41:41;15.67;;;12.20;;
3991;SDS011;2010;48.194;16.394;2022-12-08T12:47:11;15.77;;;12.63;;
3991;SDS011;2010;48.194;16.394;2022-12-08T12:52:40;15.43;;;12.50;;
3991;SDS011;2010;48.194;16.394;2022-12-08T12:58:41;17.17;;;13.10;;
3991;SDS011;2010;48.194;16.394;2022-12-08T13:04:28;16.53;;;13.20;;
3991;SDS011;2010;48.194;16.394;2022-12-08T13:06:58;21.27;;;14.50;;
3991;SDS011;2010;48.194;16.394;2022-12-08T13:09:49;15.70;;;12.40;;
3991;SDS011;2010;48.194;16.394;2022-12-08T13:12:25;21.17;;;14.70;;
3991;SDS011;2010;48.194;16.394;2022-12-08T13:14:55;18.73;;;13.37;;
3991;SDS011;2010;48.194;16.394;2022-12-08T13:17:29;18.23;;;13.63;;
3991;SDS011;2010;48.194;16.394;2022-12-08T13:20:17;19.33;;;14.07;;
3991;SDS011;2010;48.194;16.394;2022-12-08T13:26:11;21.10;;;15.83;;
3991;SDS011;2010;48.194;16.394;2022-12-08T13:31:49;20.10;;;15.07;;
3991;SDS011;2010;48.194;16.394;2022-12-08T13:34:35;19.07;;;14.10;;
3991;SDS011;2010;48.194;16.394;2022-12-08T13:37:19;20.73;;;15.77;;
3991;SDS011;2010;48.194;16.394;2022-12-08T13:39:54;21.73;;;15.83;;
3991;SDS011;2010;48.194;16.394;2022-12-08T13:42:47;18.57;;;15.40;;
3991;SDS011;2010;48.194;16.394;2022-12-08T13:45:23;20.33;;;14.93;;
3991;SDS011;2010;48.194;16.394;2022-12-08T13:48:13;20.47;;;14.67;;
3991;SDS011;2010;48.194;16.394;2022-12-08T13:51:10;21.00;;;15.00;;
3991;SDS011;2010;48.194;16.394;2022-12-08T13:54:08;22.03;;;15.83;;
3991;SDS011;2010;48.194;16.394;2022-12-08T13:57:04;18.57;;;13.83;;
3991;SDS011;2010;48.194;16.394;2022-12-08T13:59:48;20.50;;;15.10;;
3991;SDS011;2010;48.194;16.394;2022-12-08T14:02:17;21.40;;;15.70;;
3991;SDS011;2010;48.194;16.394;2022-12-08T14:05:00;19.80;;;15.53;;
3991;SDS011;2010;48.194;16.394;2022-12-08T14:07:51;20.20;;;14.90;;
3991;SDS011;2010;48.194;16.394;2022-12-08T14:10:23;20.73;;;15.27;;
3991;SDS011;2010;48.194;16.394;2022-12-08T14:13:01;21.30;;;15.30;;
3991;SDS011;2010;48.194;16.394;2022-12-08T14:15:35;19.33;;;15.30;;
3991;SDS011;2010;48.194;16.394;2022-12-08T14:18:23;19.67;;;14.77;;
3991;SDS011;2010;48.194;16.394;2022-12-08T14:21:03;21.10;;;14.97;;
3991;SDS011;2010;48.194;16.394;2022-12-08T14:23:50;21.30;;;15.30;;
3991;SDS011;2010;48.194;16.394;2022-12-08T14:26:25;20.80;;;15.07;;
3991;SDS011;2010;48.194;16.394;2022-12-08T14:28:54;20.33;;;15.27;;
3991;SDS011;2010;48.194;16.394;2022-12-08T14:31:27;19.00;;;14.60;;
3991;SDS011;2010;48.194;16.394;2022-12-08T14:33:57;22.30;;;16.07;;
3991;SDS011;2010;48.194;16.394;2022-12-08T14:36:26;21.67;;;15.67;;
3991;SDS011;2010;48.194;16.394;2022-12-08T14:39:00;22.50;;;15.50;;
3991;SDS011;2010;48.194;16.394;2022-12-08T14:41:34;22.97;;;15.60;;
3991;SDS011;2010;48.194;16.394;2022-12-08T14:44:13;24.13;;;15.93;;
3991;SDS011;2010;48.194;16.394;2022-12-08T14:47:06;21.97;;;15.20;;
3991;SDS011;2010;48.194;16.394;2022-12-08T14:49:38;21.70;;;16.20;;
3991;SDS011;2010;48.194;16.394;2022-12-08T14:52:10;22.83;;;15.77;;
3991;SDS011;2010;48.194;16.394;2022-12-08T14:54:42;19.87;;;15.77;;
3991;SDS011;2010;48.194;16.394;2022-12-08T14:57:22;21.20;;;15.90;;
3991;SDS011;2010;48.194;16.394;2022-12-08T15:00:05;21.90;;;15.03;;
3991;SDS011;2010;48.194;16.394;2022-12-08T15:02:47;18.83;;;14.40;;
3991;SDS011;2010;48.194;16.394;2022-12-08T15:05:20;23.73;;;16.30;;
3991;SDS011;2010;48.194;16.394;2022-12-08T15:07:58;20.90;;;15.57;;
3991;SDS011;2010;48.194;16.394;2022-12-08T15:10:29;23.23;;;15.70;;
3991;SDS011;2010;48.194;16.394;2022-12-08T15:13:19;23.70;;;15.73;;
3991;SDS011;2010;48.194;16.394;2022-12-08T15:15:50;22.97;;;16.43;;
3991;SDS011;2010;48.194;16.394;2022-12-08T15:18:27;24.20;;;17.23;;
3991;SDS011;2010;48.194;16.394;2022-12-08T15:21:04;23.03;;;15.97;;
3991;SDS011;2010;48.194;16.394;2022-12-08T15:23:38;24.73;;;16.87;;
3991;SDS011;2010;48.194;16.394;2022-12-08T15:26:11;21.07;;;16.33;;
3991;SDS011;2010;48.194;16.394;2022-12-08T15:28:54;24.87;;;16.10;;
3991;SDS011;2010;48.194;16.394;2022-12-08T15:31:33;21.90;;;15.80;;
3991;SDS011;2010;48.194;16.394;2022-12-08T15:34:12;24.97;;;16.83;;
3991;SDS011;2010;48.194;16.394;2022-12-08T15:36:43;22.60;;;16.83;;
3991;SDS011;2010;48.194;16.394;2022-12-08T15:39:29;26.93;;;18.73;;
3991;SDS011;2010;48.194;16.394;2022-12-08T15:42:03;22.63;;;16.40;;
3991;SDS011;2010;48.194;16.394;2022-12-08T15:44:36;26.97;;;17.57;;
3991;SDS011;2010;48.194;16.394;2022-12-08T15:47:12;23.00;;;17.40;;
3991;SDS011;2010;48.194;16.394;2022-12-08T15:49:47;26.67;;;17.00;;
3991;SDS011;2010;48.194;16.394;2022-12-08T15:52:24;21.70;;;17.10;;
3991;SDS011;2010;48.194;16.394;2022-12-08T15:55:01;24.00;;;17.43;;
3991;SDS011;2010;48.194;16.394;2022-12-08T15:57:31;29.33;;;18.07;;
3991;SDS011;2010;48.194;16.394;2022-12-08T16:00:25;23.53;;;17.23;;
3991;SDS011;2010;48.194;16.394;2022-12-08T16:03:21;21.97;;;16.60;;